createdAt,value
2022-11-29T00:01:35.272Z,60.70
2022-11-29T00:04:03.059Z,60.10
2022-11-29T00:06:31.982Z,60.10
2022-11-29T00:09:06.532Z,60.10
2022-11-29T00:11:54.054Z,60.10
2022-11-29T00:14:21.985Z,60.10
2022-11-29T00:16:56.843Z,60.10
2022-11-29T00:19:23.799Z,60.10
2022-11-29T00:21:51.113Z,60.10
2022-11-29T00:24:18.125Z,60.00
2022-11-29T00:26:44.951Z,60.10
2022-11-29T00:29:12.898Z,60.00
2022-11-29T00:31:40.788Z,60.00
2022-11-29T00:34:10.078Z,60.00
2022-11-29T00:36:36.872Z,59.90
2022-11-29T00:39:05.151Z,60.00
2022-11-29T00:41:32.200Z,59.90
2022-11-29T00:43:58.953Z,59.90
2022-11-29T00:46:25.751Z,60.00
2022-11-29T00:48:52.538Z,60.00
2022-11-29T00:51:19.281Z,59.90
2022-11-29T00:53:46.064Z,59.90
2022-11-29T00:56:12.807Z,59.80
2022-11-29T00:58:39.778Z,59.90
2022-11-29T01:01:06.596Z,59.80
2022-11-29T01:03:33.416Z,59.80
2022-11-29T01:06:05.887Z,59.80
2022-11-29T01:08:32.636Z,59.80
2022-11-29T01:11:05.320Z,59.70
2022-11-29T01:13:32.279Z,59.70
2022-11-29T01:15:59.205Z,59.80
2022-11-29T01:18:26.721Z,59.70
2022-11-29T01:21:06.464Z,59.70
2022-11-29T01:23:34.371Z,59.70
2022-11-29T01:26:04.962Z,59.70
2022-11-29T01:28:31.760Z,59.60
2022-11-29T01:30:58.643Z,59.70
2022-11-29T01:33:25.478Z,59.70
2022-11-29T01:35:55.077Z,59.70
2022-11-29T01:38:22.377Z,59.60
2022-11-29T01:40:59.210Z,59.60
2022-11-29T01:43:26.123Z,59.60
2022-11-29T01:45:53.055Z,59.50
2022-11-29T01:48:40.383Z,59.50
2022-11-29T01:51:07.487Z,60.10
2022-11-29T01:53:34.199Z,59.50
2022-11-29T01:56:04.191Z,59.50
2022-11-29T01:58:35.133Z,59.40
2022-11-29T02:01:01.972Z,59.40
2022-11-29T02:03:28.756Z,59.40
2022-11-29T02:05:55.818Z,59.40
2022-11-29T02:08:31.738Z,59.40
2022-11-29T02:11:23.697Z,59.30
2022-11-29T02:13:56.218Z,59.30
2022-11-29T02:16:28.296Z,59.30
2022-11-29T02:19:07.602Z,59.30
2022-11-29T02:21:43.223Z,59.30
2022-11-29T02:24:16.153Z,59.20
2022-11-29T02:26:57.983Z,59.30
2022-11-29T02:29:27.636Z,59.20
2022-11-29T02:32:19.266Z,59.20
2022-11-29T02:35:17.061Z,59.30
2022-11-29T02:37:59.053Z,59.20
2022-11-29T02:40:56.414Z,59.20
2022-11-29T02:44:00.823Z,59.20
2022-11-29T02:46:43.827Z,59.20
2022-11-29T02:49:22.805Z,59.10
2022-11-29T02:51:57.122Z,59.10
2022-11-29T02:54:41.992Z,59.10
2022-11-29T02:57:27.362Z,59.10
2022-11-29T03:00:08.345Z,59.10
2022-11-29T03:02:51.944Z,59.10
2022-11-29T03:05:47.141Z,59.10
2022-11-29T03:08:32.451Z,59.00
2022-11-29T03:11:08.356Z,59.10
2022-11-29T03:13:53.771Z,59.10
2022-11-29T03:16:29.792Z,59.00
2022-11-29T03:19:26.901Z,59.00
2022-11-29T03:22:09.433Z,59.10
2022-11-29T03:24:45.267Z,59.00
2022-11-29T03:27:16.777Z,59.00
2022-11-29T03:29:53.509Z,59.00
2022-11-29T03:32:33.083Z,59.00
2022-11-29T03:35:04.639Z,58.90
2022-11-29T03:38:07.949Z,58.90
2022-11-29T03:40:59.797Z,59.00
2022-11-29T03:43:44.541Z,58.90
2022-11-29T03:46:25.044Z,58.90
2022-11-29T03:49:01.475Z,58.90
2022-11-29T03:51:49.335Z,58.90
2022-11-29T03:54:36.265Z,59.00
2022-11-29T03:57:03.471Z,58.90
2022-11-29T03:59:30.333Z,58.90
2022-11-29T04:02:09.000Z,58.90
2022-11-29T04:04:53.078Z,59.00
2022-11-29T04:07:19.804Z,58.90
2022-11-29T04:10:04.338Z,58.90
2022-11-29T04:12:46.378Z,58.90
2022-11-29T04:15:48.024Z,59.60
2022-11-29T04:18:57.163Z,58.90
2022-11-29T04:21:46.975Z,58.90
2022-11-29T04:24:40.271Z,58.90
2022-11-29T04:27:35.134Z,58.90
2022-11-29T04:30:02.048Z,58.90
2022-11-29T04:32:53.455Z,58.90
2022-11-29T04:35:25.968Z,58.90
2022-11-29T04:38:26.020Z,58.90
2022-11-29T04:41:13.873Z,58.90
2022-11-29T04:43:40.572Z,58.90
2022-11-29T04:46:35.589Z,58.90
2022-11-29T04:49:08.370Z,58.90
2022-11-29T04:51:58.870Z,58.90
2022-11-29T04:54:43.336Z,58.90
2022-11-29T04:57:35.781Z,58.80
2022-11-29T05:00:15.501Z,58.90
2022-11-29T05:02:51.552Z,58.80
2022-11-29T05:05:48.408Z,58.80
2022-11-29T05:08:27.402Z,58.80
2022-11-29T05:11:05.680Z,58.70
2022-11-29T05:13:49.435Z,58.80
2022-11-29T05:16:31.026Z,58.80
2022-11-29T05:19:25.747Z,58.80
2022-11-29T05:22:01.302Z,58.80
2022-11-29T05:24:58.189Z,58.70
2022-11-29T05:28:10.257Z,58.70
2022-11-29T05:31:14.791Z,58.70
2022-11-29T05:34:03.215Z,58.70
2022-11-29T05:37:07.493Z,58.70
2022-11-29T05:39:37.452Z,58.70
2022-11-29T05:42:27.987Z,58.60
2022-11-29T05:45:07.231Z,58.70
2022-11-29T05:48:00.291Z,58.70
2022-11-29T05:50:39.866Z,58.60
2022-11-29T05:53:35.314Z,58.60
2022-11-29T05:56:40.401Z,58.60
2022-11-29T05:59:15.283Z,58.60
2022-11-29T06:02:02.933Z,58.50
2022-11-29T06:04:54.842Z,58.50
2022-11-29T06:07:35.681Z,58.50
2022-11-29T06:10:13.488Z,58.50
2022-11-29T06:12:42.650Z,58.60
2022-11-29T06:16:06.200Z,58.50
2022-11-29T06:18:56.508Z,58.50
2022-11-29T06:21:48.201Z,58.50
2022-11-29T06:24:25.775Z,58.40
2022-11-29T06:26:55.977Z,58.40
2022-11-29T06:29:43.518Z,58.40
2022-11-29T06:32:25.423Z,58.40
2022-11-29T06:35:25.549Z,58.40
2022-11-29T06:37:58.461Z,58.40
2022-11-29T06:40:25.650Z,58.40
2022-11-29T06:42:54.734Z,58.40
2022-11-29T06:45:22.086Z,58.40
2022-11-29T06:48:00.559Z,58.30
2022-11-29T06:50:33.491Z,58.30
2022-11-29T06:53:08.345Z,58.30
2022-11-29T06:55:52.861Z,58.30
2022-11-29T06:58:50.094Z,58.30
2022-11-29T07:01:47.905Z,58.30
2022-11-29T07:04:32.895Z,58.30
2022-11-29T07:06:59.923Z,58.30
2022-11-29T07:09:33.041Z,58.20
2022-11-29T07:12:00.119Z,58.20
2022-11-29T07:14:27.118Z,58.30
2022-11-29T07:17:06.628Z,58.30
2022-11-29T07:19:51.116Z,58.30
2022-11-29T07:22:26.716Z,58.30
2022-11-29T07:25:29.145Z,58.20
2022-11-29T07:28:23.547Z,58.20
2022-11-29T07:31:02.370Z,58.20
2022-11-29T07:33:29.128Z,58.20
2022-11-29T07:36:25.868Z,58.20
2022-11-29T07:39:10.917Z,58.20
2022-11-29T07:41:46.850Z,58.10
2022-11-29T07:44:20.131Z,58.10
2022-11-29T07:46:47.024Z,58.10
2022-11-29T07:49:13.868Z,58.20
2022-11-29T07:51:40.661Z,58.40
2022-11-29T07:54:07.957Z,58.00
2022-11-29T07:56:34.686Z,58.10
2022-11-29T07:59:01.982Z,58.10
2022-11-29T08:01:28.779Z,58.10
2022-11-29T08:03:55.482Z,58.00
2022-11-29T08:06:26.083Z,58.00
2022-11-29T08:08:52.872Z,58.00
2022-11-29T08:11:20.039Z,58.00
2022-11-29T08:13:46.705Z,58.00
2022-11-29T08:16:19.773Z,58.00
2022-11-29T08:18:46.955Z,58.00
2022-11-29T08:21:18.005Z,58.50
2022-11-29T08:23:46.293Z,57.80
2022-11-29T08:26:14.492Z,57.90
2022-11-29T08:28:41.275Z,57.80
2022-11-29T08:31:11.020Z,57.80
2022-11-29T08:33:39.554Z,57.80
2022-11-29T08:36:08.974Z,57.80
2022-11-29T08:38:35.740Z,57.80
2022-11-29T08:41:03.433Z,57.80
2022-11-29T08:43:31.541Z,57.70
2022-11-29T08:45:58.526Z,57.70
2022-11-29T08:48:28.311Z,57.70
2022-11-29T08:50:56.761Z,57.70
2022-11-29T08:53:43.382Z,57.80
2022-11-29T08:57:10.294Z,57.70
2022-11-29T08:59:10.448Z,57.60
2022-11-29T09:01:37.181Z,57.70
2022-11-29T09:04:07.808Z,57.70
2022-11-29T09:06:39.526Z,57.70
2022-11-29T09:09:06.764Z,57.60
2022-11-29T09:11:35.222Z,57.50
2022-11-29T09:14:07.269Z,57.40
2022-11-29T09:16:36.840Z,57.30
2022-11-29T09:19:05.080Z,58.20
2022-11-29T09:21:32.519Z,57.70
2022-11-29T09:24:01.260Z,57.70
2022-11-29T09:26:33.415Z,57.80
2022-11-29T09:29:02.106Z,57.80
2022-11-29T09:31:30.249Z,57.80
2022-11-29T09:33:57.061Z,57.90
2022-11-29T09:36:28.499Z,57.90
2022-11-29T09:38:57.096Z,57.90
2022-11-29T09:42:01.798Z,57.90
2022-11-29T09:44:28.464Z,57.90
2022-11-29T09:47:18.804Z,57.90
2022-11-29T09:49:52.381Z,58.10
2022-11-29T09:52:43.003Z,58.10
2022-11-29T09:55:40.820Z,58.10
2022-11-29T09:58:11.531Z,58.30
2022-11-29T10:00:48.169Z,58.30
2022-11-29T10:03:38.198Z,58.40
2022-11-29T10:06:17.888Z,58.40
2022-11-29T10:08:51.653Z,58.50
2022-11-29T10:11:25.164Z,58.40
2022-11-29T10:14:01.312Z,58.20
2022-11-29T10:16:43.250Z,58.50
2022-11-29T10:19:28.153Z,58.50
2022-11-29T10:22:06.326Z,58.60
2022-11-29T10:24:34.714Z,58.60
2022-11-29T10:27:01.747Z,58.40
2022-11-29T10:29:28.587Z,58.40
2022-11-29T10:31:56.830Z,58.50
2022-11-29T10:34:26.192Z,58.50
2022-11-29T10:37:02.308Z,58.50
2022-11-29T10:39:46.830Z,58.50
2022-11-29T10:42:37.426Z,58.50
2022-11-29T10:45:10.853Z,58.40
2022-11-29T10:47:37.597Z,58.50
2022-11-29T10:50:04.658Z,58.40
2022-11-29T10:52:31.400Z,58.70
2022-11-29T10:54:59.470Z,58.10
2022-11-29T10:57:26.587Z,57.40
2022-11-29T11:16:27.002Z,56.40
2022-11-29T11:18:54.495Z,59.90
2022-11-29T11:21:25.733Z,59.70
2022-11-29T11:24:01.944Z,59.40
2022-11-29T11:26:42.467Z,59.20
2022-11-29T11:29:41.207Z,59.10
2022-11-29T11:32:18.611Z,58.90
2022-11-29T11:34:57.046Z,58.70
2022-11-29T11:37:35.823Z,58.60
2022-11-29T11:40:41.158Z,58.60
2022-11-29T11:43:20.886Z,59.00
2022-11-29T11:45:54.946Z,58.30
2022-11-29T11:48:22.323Z,58.30
2022-11-29T11:50:58.263Z,58.30
2022-11-29T11:53:37.367Z,58.30
2022-11-29T11:56:10.805Z,58.20
2022-11-29T11:58:50.296Z,58.20
2022-11-29T12:01:38.745Z,58.20
2022-11-29T12:04:11.306Z,58.20
2022-11-29T12:06:56.043Z,58.20
2022-11-29T12:09:46.616Z,58.20
2022-11-29T12:12:27.289Z,58.20
2022-11-29T12:14:59.646Z,58.20
2022-11-29T12:17:41.481Z,58.10
2022-11-29T12:20:11.279Z,58.10
2022-11-29T12:22:48.627Z,58.20
2022-11-29T12:25:24.296Z,58.20
2022-11-29T12:27:51.303Z,58.10
2022-11-29T12:30:19.370Z,58.20
2022-11-29T12:32:54.316Z,58.10
2022-11-29T12:35:45.779Z,58.10
2022-11-29T12:38:35.346Z,58.20
2022-11-29T12:41:26.854Z,58.10
2022-11-29T12:43:59.988Z,58.10
2022-11-29T12:46:28.945Z,58.10
2022-11-29T12:49:01.408Z,58.10
2022-11-29T12:51:32.939Z,58.10
2022-11-29T12:54:18.543Z,58.10
2022-11-29T12:56:48.351Z,58.10
2022-11-29T12:59:47.808Z,58.10
2022-11-29T13:02:27.861Z,58.10
2022-11-29T13:05:24.271Z,58.00
2022-11-29T13:08:10.276Z,57.50
2022-11-29T13:10:37.407Z,58.40
2022-11-29T13:13:31.740Z,58.80
2022-11-29T13:16:09.390Z,58.70
2022-11-29T13:19:07.156Z,59.10
2022-11-29T13:21:33.838Z,58.80
2022-11-29T13:24:28.795Z,58.70
2022-11-29T13:26:56.422Z,58.80
2022-11-29T13:29:24.518Z,57.60
2022-11-29T13:31:51.736Z,55.70
2022-11-29T13:34:36.577Z,56.10
2022-11-29T13:37:28.671Z,56.70
2022-11-29T13:40:24.167Z,57.10
2022-11-29T13:43:23.496Z,57.90
2022-11-29T13:46:01.924Z,58.70
2022-11-29T13:48:28.644Z,58.90
2022-11-29T13:50:57.058Z,59.70
2022-11-29T13:53:25.719Z,60.30
2022-11-29T13:56:01.270Z,60.70
2022-11-29T13:58:27.996Z,60.60
2022-11-29T14:01:12.014Z,61.00
2022-11-29T14:03:50.303Z,61.00
2022-11-29T14:06:21.873Z,61.40
2022-11-29T14:11:49.156Z,61.40
2022-11-29T14:14:15.837Z,62.00
2022-11-29T14:16:42.959Z,62.30
2022-11-29T14:19:09.958Z,62.70
2022-11-29T14:22:04.572Z,62.70
2022-11-29T14:24:34.405Z,62.00
2022-11-29T14:27:07.036Z,61.70
2022-11-29T14:29:49.035Z,60.90
2022-11-29T14:32:42.802Z,61.00
2022-11-29T14:35:12.650Z,61.10
2022-11-29T14:37:42.881Z,61.60
2022-11-29T14:40:41.998Z,61.90
2022-11-29T14:43:38.275Z,61.70
2022-11-29T14:46:17.103Z,62.00
2022-11-29T14:48:58.973Z,62.60
2022-11-29T14:51:31.809Z,62.50
2022-11-29T14:54:20.120Z,62.70
2022-11-29T14:56:47.438Z,62.80
2022-11-29T14:59:47.509Z,62.90
2022-11-29T15:02:35.812Z,63.00
2022-11-29T15:05:15.450Z,63.00
2022-11-29T15:07:47.322Z,63.60
2022-11-29T15:10:20.112Z,64.00
2022-11-29T15:12:48.613Z,63.40
2022-11-29T15:15:40.716Z,63.10
2022-11-29T15:18:33.479Z,62.60
2022-11-29T15:21:28.498Z,62.20
2022-11-29T15:24:12.904Z,61.80
2022-11-29T15:26:54.274Z,61.60
2022-11-29T15:29:21.520Z,61.30
2022-11-29T15:32:00.729Z,61.30
2022-11-29T15:34:50.181Z,59.90
2022-11-29T15:37:32.236Z,60.40
2022-11-29T15:40:12.066Z,62.20
2022-11-29T15:42:47.096Z,62.30
2022-11-29T15:45:35.228Z,62.20
2022-11-29T15:48:13.989Z,62.00
2022-11-29T15:50:50.104Z,61.70
2022-11-29T15:53:23.211Z,61.40
2022-11-29T15:55:52.566Z,61.20
2022-11-29T15:58:20.428Z,61.00
2022-11-29T16:00:50.797Z,60.90
2022-11-29T16:03:30.703Z,60.80
2022-11-29T16:06:06.681Z,60.60
2022-11-29T16:08:38.127Z,60.60
2022-11-29T16:11:06.799Z,60.40
2022-11-29T16:13:38.311Z,60.30
2022-11-29T16:16:19.136Z,60.30
2022-11-29T16:18:47.967Z,60.20
2022-11-29T16:21:31.887Z,60.20
2022-11-29T16:24:10.526Z,60.00
2022-11-29T16:26:44.027Z,60.10
2022-11-29T16:29:49.957Z,60.10
2022-11-29T16:32:48.527Z,59.90
2022-11-29T16:35:22.373Z,60.00
2022-11-29T16:37:49.424Z,60.00
2022-11-29T16:40:24.074Z,59.80
2022-11-29T16:43:07.768Z,59.90
2022-11-29T16:45:39.165Z,59.80
2022-11-29T16:48:25.497Z,59.80
2022-11-29T16:51:10.815Z,59.70
2022-11-29T16:53:39.616Z,59.70
2022-11-29T16:56:10.185Z,59.70
2022-11-29T16:59:16.710Z,59.60
2022-11-29T17:01:25.049Z,59.60
2022-11-29T17:03:53.122Z,59.60
2022-11-29T17:06:24.868Z,59.60
2022-11-29T17:08:53.828Z,59.50
2022-11-29T17:11:20.535Z,59.50
2022-11-29T17:13:50.295Z,59.50
2022-11-29T17:16:19.827Z,59.40
2022-11-29T17:18:46.839Z,59.40
2022-11-29T17:21:29.414Z,59.40
2022-11-29T17:23:56.110Z,59.40
2022-11-29T17:26:23.722Z,59.40
2022-11-29T17:28:52.278Z,59.30
2022-11-29T17:31:22.253Z,59.30
2022-11-29T17:33:49.253Z,59.80
2022-11-29T17:36:19.282Z,59.20
2022-11-29T17:38:46.408Z,59.20
2022-11-29T17:41:15.671Z,59.20
2022-11-29T17:43:42.482Z,59.20
2022-11-29T17:46:12.071Z,59.20
2022-11-29T17:48:38.959Z,59.20
2022-11-29T17:51:17.245Z,59.10
2022-11-29T17:53:53.874Z,59.10
2022-11-29T17:56:23.216Z,59.10
2022-11-29T17:58:57.630Z,59.10
2022-11-29T18:01:29.155Z,59.00
2022-11-29T18:03:58.494Z,59.00
2022-11-29T18:06:27.586Z,59.00
2022-11-29T18:08:57.859Z,59.00
2022-11-29T18:11:27.832Z,59.00
2022-11-29T18:13:56.224Z,59.00
2022-11-29T18:16:31.761Z,58.90
2022-11-29T18:19:04.559Z,58.90
2022-11-29T18:21:32.258Z,58.90
2022-11-29T18:24:00.506Z,58.80
2022-11-29T18:26:29.126Z,58.80
2022-11-29T18:28:58.987Z,58.80
2022-11-29T18:31:30.724Z,58.80
2022-11-29T18:33:59.712Z,58.80
2022-11-29T18:36:31.691Z,58.80
2022-11-29T18:39:01.093Z,58.70
2022-11-29T18:41:29.161Z,58.70
2022-11-29T18:44:01.973Z,58.70
2022-11-29T18:46:36.638Z,58.70
2022-11-29T18:49:05.747Z,58.70
2022-11-29T18:51:32.792Z,58.70
2022-11-29T18:54:00.635Z,58.60
2022-11-29T18:56:29.861Z,58.60
2022-11-29T18:59:10.128Z,58.60
2022-11-29T19:01:41.230Z,58.60
2022-11-29T19:04:14.150Z,58.60
2022-11-29T19:06:41.542Z,58.50
2022-11-29T19:09:13.156Z,58.50
2022-11-29T19:11:40.377Z,58.50
2022-11-29T19:14:12.911Z,58.50
2022-11-29T19:16:45.503Z,58.50
2022-11-29T19:19:13.076Z,58.50
2022-11-29T19:21:40.392Z,58.40
2022-11-29T19:24:13.688Z,58.40
2022-11-29T19:26:42.151Z,58.40
2022-11-29T19:29:09.100Z,58.40
2022-11-29T19:31:42.263Z,58.40
2022-11-29T19:34:08.987Z,58.30
2022-11-29T19:36:42.316Z,58.30
2022-11-29T19:39:10.123Z,58.30
2022-11-29T19:41:37.781Z,58.30
2022-11-29T19:44:07.940Z,58.30
2022-11-29T19:46:44.302Z,58.30
2022-11-29T19:49:14.112Z,58.30
2022-11-29T19:51:43.154Z,58.20
2022-11-29T19:54:10.669Z,58.20
2022-11-29T19:56:38.939Z,58.20
2022-11-29T19:59:07.576Z,58.20
2022-11-29T20:01:40.744Z,58.20
2022-11-29T20:04:10.768Z,58.20
2022-11-29T20:06:38.587Z,58.20
2022-11-29T20:09:06.431Z,58.10
2022-11-29T20:11:33.305Z,58.10
2022-11-29T20:14:02.718Z,58.10
2022-11-29T20:16:31.460Z,58.10
2022-11-29T20:18:59.028Z,58.20
2022-11-29T20:21:31.571Z,58.10
2022-11-29T20:24:00.938Z,58.10
2022-11-29T20:26:28.711Z,58.10
2022-11-29T20:28:55.753Z,58.10
2022-11-29T20:31:23.419Z,58.10
2022-11-29T20:33:52.629Z,58.10
2022-11-29T20:36:34.660Z,58.10
2022-11-29T20:39:22.767Z,58.10
2022-11-29T20:42:08.173Z,58.00
2022-11-29T20:44:44.160Z,58.00
2022-11-29T20:47:19.409Z,58.10
2022-11-29T20:49:46.685Z,58.00
2022-11-29T20:52:42.932Z,58.10
2022-11-29T20:55:09.939Z,58.10
2022-11-29T20:57:38.400Z,58.00
2022-11-29T21:00:11.354Z,58.10
2022-11-29T21:02:39.096Z,58.00
2022-11-29T21:05:06.767Z,58.00
2022-11-29T21:07:33.792Z,58.00
2022-11-29T21:10:02.863Z,58.00
2022-11-29T21:12:30.296Z,58.00
2022-11-29T21:14:57.807Z,58.00
2022-11-29T21:17:30.229Z,58.00
2022-11-29T21:20:00.253Z,58.00
2022-11-29T21:23:02.053Z,58.00
2022-11-29T21:25:54.354Z,58.00
2022-11-29T21:28:29.335Z,57.90
2022-11-29T21:30:56.787Z,58.00
2022-11-29T21:33:23.860Z,58.00
2022-11-29T21:35:56.135Z,58.00
2022-11-29T21:38:25.573Z,57.90
2022-11-29T21:40:52.308Z,57.90
2022-11-29T21:43:20.724Z,57.90
2022-11-29T21:45:49.511Z,57.90
2022-11-29T21:48:34.671Z,57.90
2022-11-29T21:51:03.150Z,57.90
2022-11-29T21:53:30.373Z,57.90
2022-11-29T21:56:03.708Z,57.90
2022-11-29T21:58:32.232Z,57.90
2022-11-29T22:01:06.944Z,57.90
2022-11-29T22:03:33.774Z,57.90
2022-11-29T22:06:05.761Z,57.90
2022-11-29T22:08:38.885Z,57.90
2022-11-29T22:11:11.714Z,57.90
2022-11-29T22:13:58.198Z,57.90
2022-11-29T22:16:25.431Z,57.90
2022-11-29T22:18:52.386Z,57.90
2022-11-29T22:21:19.451Z,57.90
2022-11-29T22:23:46.443Z,57.90
2022-11-29T22:26:16.217Z,57.90
2022-11-29T22:28:42.937Z,57.80
2022-11-29T22:31:11.431Z,57.80
2022-11-29T22:33:38.856Z,57.90
2022-11-29T22:36:11.816Z,57.90
2022-11-29T22:38:39.956Z,57.90
2022-11-29T22:41:08.516Z,57.80
2022-11-29T22:43:35.964Z,57.80
2022-11-29T22:46:20.765Z,58.40
2022-11-29T22:48:50.760Z,57.80
2022-11-29T22:51:20.407Z,57.80
2022-11-29T22:53:52.753Z,57.90
2022-11-29T22:56:20.816Z,57.80
2022-11-29T22:58:47.579Z,57.90
2022-11-29T23:01:17.205Z,57.80
2022-11-29T23:03:51.833Z,57.80
2022-11-29T23:06:24.978Z,57.80
2022-11-29T23:08:53.514Z,57.90
2022-11-29T23:11:23.240Z,57.80
2022-11-29T23:13:50.154Z,57.90
2022-11-29T23:16:19.597Z,57.90
2022-11-29T23:18:46.863Z,57.90
2022-11-29T23:21:19.963Z,57.80
2022-11-29T23:23:50.292Z,57.80
2022-11-29T23:26:28.684Z,57.80
2022-11-29T23:28:56.007Z,57.90
2022-11-29T23:31:26.514Z,57.90
2022-11-29T23:33:53.606Z,57.90
2022-11-29T23:36:20.596Z,57.80
2022-11-29T23:38:47.509Z,57.90
2022-11-29T23:41:14.851Z,57.90
2022-11-29T23:43:42.140Z,57.90
2022-11-29T23:46:20.389Z,57.90
2022-11-29T23:48:47.374Z,57.90
2022-11-29T23:51:15.451Z,57.90
2022-11-29T23:53:42.850Z,57.90
2022-11-29T23:56:17.364Z,57.90
2022-11-29T23:58:44.676Z,57.90
